Time;durP1;ratioP1;P1;durP2;ratioP2;P2;SDS_P1;SDS_P2;PMS_P1;PMS_P2;Temp;Humidity;BMP_temperature;BMP_pressure;BME280_temperature;BME280_humidity;BME280_pressure;Samples;Min_cycle;Max_cycle;Signal;HPM_P1;HPM_P2
2022/08/27 00:01:24;;;;;;;0.00;0.00;;;21.00;99.90;;;;;;5058542;28;20446;-68
2022/08/27 00:03:54;;;;;;;0.00;0.00;;;20.90;99.90;;;;;;5058061;28;20953;-68
2022/08/27 00:06:24;;;;;;;0.00;0.00;;;20.90;99.90;;;;;;5058137;28;20593;-68
2022/08/27 00:08:53;;;;;;;0.00;0.00;;;21.00;99.90;;;;;;5057776;28;20506;-67
2022/08/27 00:11:24;;;;;;;0.00;0.00;;;21.00;99.90;;;;;;5057653;28;20534;-67
2022/08/27 00:13:52;;;;;;;0.00;0.00;;;20.90;99.90;;;;;;5058077;28;20445;-67
2022/08/27 00:16:20;;;;;;;0.00;0.00;;;20.90;99.90;;;;;;5057840;28;20441;-67
2022/08/27 00:18:48;;;;;;;0.00;0.00;;;20.90;99.90;;;;;;5059881;28;20459;-67
2022/08/27 00:21:17;;;;;;;0.00;0.00;;;21.00;99.90;;;;;;5061042;28;20469;-67
2022/08/27 00:23:45;;;;;;;0.00;0.00;;;20.90;99.90;;;;;;5061395;28;20447;-67
2022/08/27 00:26:14;;;;;;;0.00;0.00;;;20.90;99.90;;;;;;5061227;28;20843;-67
2022/08/27 00:28:44;;;;;;;0.00;0.00;;;20.80;99.90;;;;;;5061083;28;20638;-68
2022/08/27 00:31:12;;;;;;;0.00;0.00;;;20.70;99.90;;;;;;5061632;28;20811;-68
2022/08/27 00:33:39;;;;;;;0.00;0.00;;;20.60;99.90;;;;;;5061472;28;20439;-67
2022/08/27 00:36:08;;;;;;;0.00;0.00;;;20.60;99.90;;;;;;5061891;28;20473;-67
2022/08/27 00:38:37;;;;;;;0.00;0.00;;;20.60;99.90;;;;;;5061216;28;20481;-67
2022/08/27 00:41:07;;;;;;;0.00;0.00;;;20.50;99.90;;;;;;5061286;28;20435;-70
2022/08/27 00:43:48;;;;;;;0.00;0.00;;;20.40;99.90;;;;;;5061435;28;20467;-67
2022/08/27 00:46:23;;;;;;;0.00;0.00;;;20.40;99.90;;;;;;5061207;28;20972;-69
2022/08/27 00:48:55;;;;;;;0.00;0.00;;;20.30;99.90;;;;;;5061139;28;20478;-68
2022/08/27 00:51:24;;;;;;;0.00;0.00;;;20.40;99.90;;;;;;5062815;28;20549;-67
2022/08/27 00:53:53;;;;;;;0.00;0.00;;;20.40;99.90;;;;;;5061592;28;20442;-67
2022/08/27 00:56:24;;;;;;;0.00;0.00;;;20.40;99.90;;;;;;5060833;28;20438;-68
2022/08/27 00:58:55;;;;;;;0.00;0.00;;;20.40;99.90;;;;;;5061018;28;20517;-67
2022/08/27 01:01:26;;;;;;;0.00;0.00;;;20.50;99.90;;;;;;5061021;28;20465;-67
2022/08/27 01:03:59;;;;;;;0.00;0.00;;;20.60;99.90;;;;;;5060866;28;20447;-67
2022/08/27 01:06:33;;;;;;;0.00;0.00;;;20.60;99.90;;;;;;5060736;28;20443;-67
2022/08/27 01:09:05;;;;;;;0.00;0.00;;;20.60;99.90;;;;;;5060491;28;20493;-67
2022/08/27 01:11:33;;;;;;;0.00;0.00;;;20.60;99.90;;;;;;5060772;28;20522;-68
2022/08/27 01:14:02;;;;;;;0.00;0.00;;;20.60;99.90;;;;;;5060504;28;20439;-68
2022/08/27 01:16:35;;;;;;;0.00;0.00;;;20.60;99.90;;;;;;5060654;28;20743;-67
2022/08/27 01:19:07;;;;;;;0.00;0.00;;;20.60;99.90;;;;;;5060524;28;20539;-67
2022/08/27 01:21:42;;;;;;;0.00;0.00;;;20.50;99.90;;;;;;5060124;28;20623;-67
2022/08/27 01:24:23;;;;;;;0.00;0.00;;;20.60;99.90;;;;;;5060652;28;20447;-67
2022/08/27 01:26:51;;;;;;;0.00;0.00;;;20.50;99.90;;;;;;5060106;28;20443;-67
2022/08/27 01:29:19;;;;;;;0.00;0.00;;;20.50;99.90;;;;;;5059689;28;20474;-67
2022/08/27 01:31:46;;;;;;;0.00;0.00;;;20.50;99.90;;;;;;5060406;28;20705;-67
2022/08/27 01:34:15;;;;;;;0.00;0.00;;;20.50;99.90;;;;;;5060334;28;20551;-67
2022/08/27 01:36:43;;;;;;;0.00;0.00;;;20.50;99.90;;;;;;5060371;28;20443;-67
2022/08/27 01:39:11;;;;;;;0.00;0.00;;;20.60;99.90;;;;;;5060202;28;20459;-67
2022/08/27 01:41:40;;;;;;;0.00;0.00;;;20.60;99.90;;;;;;5060891;28;20820;-67
2022/08/27 01:44:08;;;;;;;0.00;0.00;;;20.60;99.90;;;;;;5060523;28;20446;-67
2022/08/27 01:46:36;;;;;;;0.00;0.00;;;20.50;99.90;;;;;;5060058;28;20526;-67
2022/08/27 01:49:04;;;;;;;0.00;0.00;;;20.50;99.90;;;;;;5060456;28;20815;-67
2022/08/27 01:51:32;;;;;;;0.00;0.00;;;20.50;99.90;;;;;;5059912;28;20826;-67
2022/08/27 01:54:00;;;;;;;0.00;0.00;;;20.50;99.90;;;;;;5059799;28;20986;-67
2022/08/27 01:56:27;;;;;;;0.00;0.00;;;20.50;99.90;;;;;;5059703;28;20439;-67
2022/08/27 01:58:57;;;;;;;0.00;0.00;;;20.60;99.90;;;;;;5059674;28;20455;-67
2022/08/27 02:01:24;;;;;;;0.00;0.00;;;20.60;99.90;;;;;;5060083;28;21093;-69
2022/08/27 02:03:52;;;;;;;0.00;0.00;;;20.60;99.90;;;;;;5059625;28;20716;-69
2022/08/27 02:06:20;;;;;;;0.00;0.00;;;20.70;99.90;;;;;;5059685;28;20530;-67
2022/08/27 02:08:48;;;;;;;0.00;0.00;;;20.70;99.90;;;;;;5059744;28;20505;-67
2022/08/27 02:11:15;;;;;;;0.00;0.00;;;20.70;99.90;;;;;;5059780;28;20477;-69
2022/08/27 02:13:43;;;;;;;0.00;0.00;;;20.70;99.90;;;;;;5059365;28;20678;-68
2022/08/27 02:21:35;;;;;;;0.00;0.00;;;20.70;99.90;;;;;;5006459;28;20501;-89
2022/08/27 02:24:03;;;;;;;0.00;0.00;;;20.60;99.90;;;;;;5045597;28;20432;-89
2022/08/27 02:26:32;;;;;;;0.00;0.00;;;20.60;99.90;;;;;;5046107;28;20456;-89
2022/08/27 02:28:59;;;;;;;0.00;0.00;;;20.70;99.90;;;;;;5046564;28;20776;-89
2022/08/27 02:31:27;;;;;;;0.00;0.00;;;20.60;99.90;;;;;;5046380;28;20662;-88
2022/08/27 02:33:55;;;;;;;0.00;0.00;;;20.60;99.90;;;;;;5046187;28;20510;-89
2022/08/27 02:36:23;;;;;;;0.00;0.00;;;20.60;99.90;;;;;;5046368;28;20447;-89
2022/08/27 02:38:53;;;;;;;0.00;0.00;;;20.60;99.90;;;;;;5045779;28;20879;-89
2022/08/27 02:41:20;;;;;;;0.00;0.00;;;20.60;99.90;;;;;;5046674;28;20579;-89
2022/08/27 02:43:48;;;;;;;0.00;0.00;;;20.50;99.90;;;;;;5046316;28;20452;-89
2022/08/27 02:46:16;;;;;;;0.00;0.00;;;20.50;99.90;;;;;;5045087;28;20605;-89
2022/08/27 02:48:44;;;;;;;0.00;0.00;;;20.60;99.90;;;;;;5045628;28;20616;-90
2022/08/27 02:51:12;;;;;;;0.00;0.00;;;20.50;99.90;;;;;;5045420;28;20492;-88
2022/08/27 02:53:42;;;;;;;0.00;0.00;;;20.50;99.90;;;;;;5047624;28;20444;-89
2022/08/27 02:56:11;;;;;;;0.00;0.00;;;20.50;99.90;;;;;;5068301;28;20507;-89
2022/08/27 02:58:45;;;;;;;0.00;0.00;;;20.50;99.90;;;;;;5045712;28;20591;-89
2022/08/27 03:01:15;;;;;;;0.00;0.00;;;20.40;99.90;;;;;;5045066;28;20452;-89
2022/08/27 03:03:43;;;;;;;0.00;0.00;;;20.40;99.90;;;;;;5045718;28;20955;-89
2022/08/27 03:06:11;;;;;;;0.00;0.00;;;20.30;99.90;;;;;;5045720;28;20458;-89
2022/08/27 03:08:39;;;;;;;0.00;0.00;;;20.40;99.90;;;;;;5045071;28;20466;-89
2022/08/27 03:11:22;;;;;;;0.00;0.00;;;20.40;99.90;;;;;;5045666;28;20460;-89
2022/08/27 03:13:50;;;;;;;0.00;0.00;;;20.40;99.90;;;;;;5044710;28;20513;-89
2022/08/27 03:16:18;;;;;;;0.00;0.00;;;20.30;99.90;;;;;;5044274;28;20462;-89
2022/08/27 03:18:46;;;;;;;0.00;0.00;;;20.30;99.90;;;;;;5044026;28;20444;-89
2022/08/27 03:21:19;;;;;;;0.00;0.00;;;20.40;99.90;;;;;;5044360;28;20498;-89
2022/08/27 03:23:48;;;;;;;0.00;0.00;;;20.40;99.90;;;;;;5045381;28;20458;-88
2022/08/27 03:26:16;;;;;;;0.00;0.00;;;20.40;99.90;;;;;;5045266;28;20452;-90
2022/08/27 03:28:46;;;;;;;0.00;0.00;;;20.30;99.90;;;;;;5045882;28;20527;-89
2022/08/27 03:31:19;;;;;;;0.00;0.00;;;20.20;99.90;;;;;;5044958;28;20564;-90
2022/08/27 03:33:47;;;;;;;0.00;0.00;;;20.20;99.90;;;;;;5044680;28;20848;-90
2022/08/27 03:36:15;;;;;;;0.00;0.00;;;20.10;99.90;;;;;;5045239;28;20822;-89
2022/08/27 03:38:43;;;;;;;0.00;0.00;;;20.10;99.90;;;;;;5044279;28;20433;-89
2022/08/27 03:41:12;;;;;;;0.00;0.00;;;20.10;99.90;;;;;;5044148;28;20717;-90
2022/08/27 03:43:40;;;;;;;0.00;0.00;;;20.10;99.90;;;;;;5045390;28;20458;-89
2022/08/27 03:46:10;;;;;;;0.00;0.00;;;20.10;99.90;;;;;;5045081;28;20462;-90
2022/08/27 03:48:38;;;;;;;0.00;0.00;;;20.10;99.90;;;;;;5045598;28;20458;-89
2022/08/27 03:51:08;;;;;;;0.00;0.00;;;20.10;99.90;;;;;;5049055;28;20494;-88
2022/08/27 03:53:38;;;;;;;0.00;0.00;;;20.10;99.90;;;;;;5068198;28;20432;-88
2022/08/27 03:56:07;;;;;;;0.00;0.00;;;20.10;99.90;;;;;;5062287;28;20455;-89
2022/08/27 03:58:36;;;;;;;0.00;0.00;;;20.00;99.90;;;;;;5049080;28;20467;-89
2022/08/27 04:01:07;;;;;;;0.00;0.00;;;20.10;99.90;;;;;;5048747;28;20551;-89
2022/08/27 04:03:37;;;;;;;0.00;0.00;;;20.10;99.90;;;;;;5049044;28;20722;-90
2022/08/27 04:06:05;;;;;;;0.00;0.00;;;20.10;99.90;;;;;;5048495;28;20908;-89
2022/08/27 04:08:33;;;;;;;0.00;0.00;;;20.00;99.90;;;;;;5048101;28;20438;-89
2022/08/27 04:11:05;;;;;;;0.00;0.00;;;20.00;99.90;;;;;;5048041;28;21108;-89
2022/08/27 04:13:33;;;;;;;0.00;0.00;;;20.00;99.90;;;;;;5049075;28;20444;-91
2022/08/27 04:16:01;;;;;;;0.00;0.00;;;20.10;99.90;;;;;;5049483;28;20452;-90
2022/08/27 04:18:29;;;;;;;0.00;0.00;;;20.10;99.90;;;;;;5048341;28;20448;-89
2022/08/27 04:21:06;;;;;;;0.00;0.00;;;20.10;99.90;;;;;;5048215;28;21008;-90
2022/08/27 04:23:34;;;;;;;0.00;0.00;;;20.10;99.90;;;;;;5048993;28;20455;-88
2022/08/27 04:26:05;;;;;;;0.00;0.00;;;20.10;99.90;;;;;;5048236;28;20615;-88
2022/08/27 04:28:33;;;;;;;0.00;0.00;;;20.00;99.90;;;;;;5048928;28;20459;-88
2022/08/27 04:31:06;;;;;;;0.00;0.00;;;20.00;99.90;;;;;;5048700;28;20649;-90
2022/08/27 04:33:39;;;;;;;0.00;0.00;;;20.00;99.90;;;;;;5048971;28;20462;-89
2022/08/27 04:36:10;;;;;;;0.00;0.00;;;20.00;99.90;;;;;;5049666;28;20600;-89
2022/08/27 04:38:38;;;;;;;0.00;0.00;;;19.90;99.90;;;;;;5049371;28;20555;-90
2022/08/27 04:41:20;;;;;;;0.00;0.00;;;20.00;99.90;;;;;;5048801;28;20463;-89
2022/08/27 04:43:49;;;;;;;0.00;0.00;;;20.00;99.90;;;;;;5048847;28;20939;-89
2022/08/27 04:46:22;;;;;;;0.00;0.00;;;20.00;99.90;;;;;;5048859;28;20452;-90
2022/08/27 04:48:51;;;;;;;0.00;0.00;;;20.00;99.90;;;;;;5050240;28;20939;-90
2022/08/27 04:51:20;;;;;;;0.00;0.00;;;20.10;99.90;;;;;;5052825;28;20511;-90
2022/08/27 04:53:49;;;;;;;0.00;0.00;;;20.10;99.90;;;;;;5063140;28;20466;-90
2022/08/27 04:56:20;;;;;;;0.00;0.00;;;20.10;99.90;;;;;;5058974;28;20874;-88
2022/08/27 04:58:50;;;;;;;0.00;0.00;;;20.10;99.90;;;;;;5048376;28;20456;-89
2022/08/27 05:01:21;;;;;;;0.00;0.00;;;20.20;99.90;;;;;;5049274;28;20665;-89
2022/08/27 05:03:49;;;;;;;0.00;0.00;;;20.10;99.90;;;;;;5048569;28;20424;-89
2022/08/27 05:06:18;;;;;;;0.00;0.00;;;20.10;99.90;;;;;;5049174;28;20475;-89
2022/08/27 05:08:48;;;;;;;0.00;0.00;;;20.20;99.90;;;;;;5050139;28;20459;-89
2022/08/27 05:11:20;;;;;;;0.00;0.00;;;20.10;99.90;;;;;;5049056;28;20698;-90
2022/08/27 05:13:48;;;;;;;0.00;0.00;;;20.10;99.90;;;;;;5049359;28;20478;-90
2022/08/27 05:16:20;;;;;;;0.00;0.00;;;20.20;99.90;;;;;;5049312;28;20552;-90
2022/08/27 05:18:52;;;;;;;0.00;0.00;;;20.10;99.90;;;;;;5050078;28;20593;-89
2022/08/27 05:21:26;;;;;;;0.00;0.00;;;20.10;99.90;;;;;;5049183;28;20523;-91
2022/08/27 05:24:00;;;;;;;0.00;0.00;;;20.10;99.90;;;;;;5049689;28;20485;-89
2022/08/27 05:26:28;;;;;;;0.00;0.00;;;20.00;99.90;;;;;;5050389;28;21042;-89
2022/08/27 05:28:59;;;;;;;0.00;0.00;;;20.00;99.90;;;;;;5050577;28;20448;-90
2022/08/27 05:31:28;;;;;;;0.00;0.00;;;20.00;99.90;;;;;;5053690;28;20693;-90
2022/08/27 05:33:56;;;;;;;0.00;0.00;;;20.00;99.90;;;;;;5053707;28;20448;-90
2022/08/27 05:36:27;;;;;;;0.00;0.00;;;20.00;99.90;;;;;;5050893;28;20439;-90
2022/08/27 05:38:58;;;;;;;0.00;0.00;;;20.00;99.90;;;;;;5051533;28;20452;-90
2022/08/27 05:41:31;;;;;;;0.00;0.00;;;20.00;99.90;;;;;;5051514;28;20522;-91
2022/08/27 05:44:04;;;;;;;0.00;0.00;;;19.90;99.90;;;;;;5051041;28;20440;-90
2022/08/27 05:46:53;;;;;;;0.00;0.00;;;19.90;99.90;;;;;;5050521;28;20436;-91
2022/08/27 05:49:21;;;;;;;0.00;0.00;;;19.80;99.90;;;;;;5053473;28;20440;-90
2022/08/27 05:51:49;;;;;;;0.00;0.00;;;19.80;99.90;;;;;;5069790;28;20464;-90
2022/08/27 05:54:19;;;;;;;0.00;0.00;;;19.80;99.90;;;;;;5059465;28;20469;-92
2022/08/27 05:56:51;;;;;;;0.00;0.00;;;19.80;99.90;;;;;;5052980;28;20553;-90
2022/08/27 06:02:09;;;;;;;0.00;0.00;;;19.80;99.90;;;;;;5061398;28;20863;-88
2022/08/27 06:04:40;;;;;;;0.00;0.00;;;19.70;99.90;;;;;;5048771;28;21020;-90
2022/08/27 06:07:09;;;;;;;0.00;0.00;;;19.60;99.90;;;;;;5051851;28;20536;-89
2022/08/27 06:09:39;;;;;;;0.00;0.00;;;19.60;99.90;;;;;;5049142;28;20456;-91
2022/08/27 06:12:08;;;;;;;0.00;0.00;;;19.70;99.90;;;;;;5047950;28;20480;-89
2022/08/27 06:14:37;;;;;;;0.00;0.00;;;19.70;99.90;;;;;;5045946;28;20443;-90
2022/08/27 06:17:05;;;;;;;0.00;0.00;;;19.70;99.90;;;;;;5049543;28;20456;-90
2022/08/27 06:19:35;;;;;;;0.00;0.00;;;19.80;99.90;;;;;;5053020;28;20508;-89
2022/08/27 06:22:04;;;;;;;0.00;0.00;;;19.80;99.90;;;;;;5057309;28;20531;-88
2022/08/27 06:24:40;;;;;;;0.00;0.00;;;19.90;99.90;;;;;;5057885;28;20436;-89
2022/08/27 06:27:10;;;;;;;0.00;0.00;;;19.90;99.90;;;;;;5055278;28;20512;-91
2022/08/27 06:29:44;;;;;;;0.00;0.00;;;19.80;99.90;;;;;;5054018;28;20500;-89
2022/08/27 06:32:25;;;;;;;0.00;0.00;;;19.80;99.90;;;;;;5051484;28;20886;-88
2022/08/27 06:34:53;;;;;;;0.00;0.00;;;19.80;99.90;;;;;;5048909;28;20448;-93
2022/08/27 06:37:21;;;;;;;0.00;0.00;;;19.70;99.90;;;;;;5051847;28;20844;-90
2022/08/27 06:39:51;;;;;;;0.00;0.00;;;19.60;99.90;;;;;;5049645;28;20971;-90
2022/08/27 06:42:21;;;;;;;0.00;0.00;;;19.60;99.90;;;;;;5047089;28;20475;-90
2022/08/27 06:44:49;;;;;;;0.00;0.00;;;19.60;99.90;;;;;;5047229;28;20529;-91
2022/08/27 06:47:17;;;;;;;0.00;0.00;;;19.60;99.90;;;;;;5047427;28;20534;-90
2022/08/27 06:49:48;;;;;;;0.00;0.00;;;19.60;99.90;;;;;;5059698;28;20432;-91
2022/08/27 06:52:15;;;;;;;0.00;0.00;;;19.70;99.90;;;;;;5057929;28;20471;-90
2022/08/27 06:54:44;;;;;;;0.00;0.00;;;19.60;99.90;;;;;;5046148;28;20680;-91
2022/08/27 06:57:13;;;;;;;0.00;0.00;;;19.70;99.90;;;;;;5046101;28;20458;-90
2022/08/27 06:59:42;;;;;;;0.00;0.00;;;19.80;99.90;;;;;;5046384;28;20632;-90
2022/08/27 07:02:11;;;;;;;0.00;0.00;;;19.80;99.90;;;;;;5046740;28;20475;-90
2022/08/27 07:04:39;;;;;;;0.00;0.00;;;19.80;99.90;;;;;;5047241;28;20544;-91
2022/08/27 07:07:07;;;;;;;0.00;0.00;;;19.80;99.90;;;;;;5047286;28;20472;-89
2022/08/27 07:09:35;;;;;;;0.00;0.00;;;19.80;99.90;;;;;;5045550;28;20458;-88
2022/08/27 07:12:04;;;;;;;0.00;0.00;;;19.70;99.90;;;;;;5046596;28;21053;-90
2022/08/27 07:14:33;;;;;;;0.00;0.00;;;19.70;99.90;;;;;;5046382;28;20455;-90
2022/08/27 07:17:07;;;;;;;0.00;0.00;;;19.80;99.90;;;;;;5046661;28;20711;-92
2022/08/27 07:19:42;;;;;;;0.00;0.00;;;19.70;99.90;;;;;;5046322;28;20800;-89
2022/08/27 07:22:11;;;;;;;0.00;0.00;;;19.70;99.90;;;;;;5045886;28;20579;-89
2022/08/27 07:24:39;;;;;;;0.00;0.00;;;19.50;99.90;;;;;;5045564;28;20472;-91
2022/08/27 07:27:08;;;;;;;0.00;0.00;;;19.50;99.90;;;;;;5046834;28;20505;-91
2022/08/27 07:29:38;;;;;;;0.00;0.00;;;19.40;99.90;;;;;;5052011;28;20452;-89
2022/08/27 07:32:06;;;;;;;0.00;0.00;;;19.40;99.90;;;;;;5053241;28;20604;-91
2022/08/27 07:34:34;;;;;;;0.00;0.00;;;19.40;99.90;;;;;;5048538;28;20503;-91
2022/08/27 07:37:02;;;;;;;0.00;0.00;;;19.50;99.90;;;;;;5049078;28;20574;-89
2022/08/27 07:39:30;;;;;;;0.00;0.00;;;19.50;99.90;;;;;;5045935;28;20436;-88
2022/08/27 07:44:45;;;;;;;0.00;0.00;;;19.60;99.90;;;;;;5045076;28;20452;-89
2022/08/27 07:47:16;;;;;;;0.00;0.00;;;19.60;99.90;;;;;;5046352;28;20440;-88
2022/08/27 07:49:47;;;;;;;0.00;0.00;;;19.70;99.90;;;;;;5064736;28;20435;-87
2022/08/27 07:52:16;;;;;;;0.00;0.00;;;19.80;99.90;;;;;;5050951;28;20533;-89
2022/08/27 07:54:43;;;;;;;0.00;0.00;;;19.80;99.90;;;;;;5048744;28;20544;-89
2022/08/27 07:57:12;;;;;;;0.00;0.00;;;19.70;99.90;;;;;;5051835;28;20436;-90
2022/08/27 07:59:40;;;;;;;0.00;0.00;;;19.70;99.90;;;;;;5057254;28;20459;-88
2022/08/27 08:02:11;;;;;;;0.00;0.00;;;19.70;99.90;;;;;;5047314;28;21012;-90
2022/08/27 08:04:39;;;;;;;0.00;0.00;;;19.80;99.90;;;;;;5045456;28;20456;-90
2022/08/27 08:07:08;;;;;;;0.00;0.00;;;19.80;99.90;;;;;;5047087;28;20517;-90
2022/08/27 08:09:37;;;;;;;0.00;0.00;;;19.70;99.90;;;;;;5046461;28;20528;-90
2022/08/27 08:12:06;;;;;;;0.00;0.00;;;19.80;99.90;;;;;;5046443;28;20484;-90
2022/08/27 08:14:36;;;;;;;0.00;0.00;;;19.80;99.90;;;;;;5045831;28;20481;-89
2022/08/27 08:17:04;;;;;;;0.00;0.00;;;19.80;99.90;;;;;;5046316;28;20779;-91
2022/08/27 08:19:39;;;;;;;0.00;0.00;;;19.90;99.90;;;;;;5047378;28;20462;-88
2022/08/27 08:22:07;;;;;;;0.00;0.00;;;19.90;99.90;;;;;;5049535;28;21055;-90
2022/08/27 08:24:35;;;;;;;0.00;0.00;;;19.80;99.90;;;;;;5050139;28;20448;-91
2022/08/27 08:27:04;;;;;;;0.00;0.00;;;19.80;99.90;;;;;;5048065;28;20452;-91
2022/08/27 08:29:36;;;;;;;0.00;0.00;;;19.80;99.90;;;;;;5051035;28;20432;-91
2022/08/27 08:32:05;;;;;;;0.00;0.00;;;19.70;99.90;;;;;;5048907;28;20484;-90
2022/08/27 08:34:34;;;;;;;0.00;0.00;;;19.70;99.90;;;;;;5047835;28;20452;-90
2022/08/27 08:37:05;;;;;;;0.00;0.00;;;19.80;99.90;;;;;;5049461;28;20456;-91
2022/08/27 08:39:33;;;;;;;0.00;0.00;;;19.80;99.90;;;;;;5051236;28;20834;-91
2022/08/27 08:42:04;;;;;;;0.00;0.00;;;19.90;99.90;;;;;;5051685;28;20462;-89
2022/08/27 08:44:49;;;;;;;0.00;0.00;;;20.00;99.90;;;;;;5054272;28;20466;-90
2022/08/27 08:47:30;;;;;;;0.00;0.00;;;20.00;99.90;;;;;;5056180;28;20452;-90
2022/08/27 08:50:05;;;;;;;0.00;0.00;;;20.00;99.90;;;;;;5060885;28;20502;-91
2022/08/27 08:52:43;;;;;;;0.00;0.00;;;20.00;99.90;;;;;;5050621;28;20479;-90
2022/08/27 08:55:40;;;;;;;0.00;0.00;;;20.10;99.90;;;;;;5054344;28;20509;-91
2022/08/27 08:58:16;;;;;;;0.00;0.00;;;20.10;99.90;;;;;;5052379;28;20762;-92
2022/08/27 09:00:54;;;;;;;0.00;0.00;;;20.10;99.90;;;;;;5052465;28;20551;-90
2022/08/27 09:03:54;;;;;;;0.00;0.00;;;20.10;99.90;;;;;;5053021;28;20413;-92
2022/08/27 09:06:40;;;;;;;0.00;0.00;;;20.10;99.90;;;;;;4987744;28;20750;-89
2022/08/27 09:09:27;;;;;;;0.00;0.00;;;20.10;99.90;;;;;;4952581;29;20445;-90
2022/08/27 09:12:00;;;;;;;0.00;0.00;;;20.10;99.90;;;;;;5002150;28;20465;-91
2022/08/27 09:14:37;;;;;;;0.00;0.00;;;20.10;99.90;;;;;;5008277;28;20470;-90
2022/08/27 09:17:09;;;;;;;0.00;0.00;;;20.00;99.90;;;;;;5007619;28;20511;-90
2022/08/27 09:19:38;;;;;;;0.00;0.00;;;20.00;99.90;;;;;;5007773;28;20537;-90
2022/08/27 09:22:19;;;;;;;0.00;0.00;;;20.00;99.90;;;;;;5008933;28;20474;-89
2022/08/27 09:25:02;;;;;;;0.00;0.00;;;20.00;99.90;;;;;;5006681;28;20449;-91
2022/08/27 09:27:30;;;;;;;0.00;0.00;;;20.00;99.90;;;;;;5007718;28;20519;-91
2022/08/27 09:29:58;;;;;;;0.00;0.00;;;20.00;99.90;;;;;;5008478;28;20454;-90
2022/08/27 09:32:31;;;;;;;0.00;0.00;;;20.10;99.90;;;;;;5007468;28;20490;-87
2022/08/27 09:35:05;;;;;;;0.00;0.00;;;20.10;99.90;;;;;;5007843;28;20457;-89
2022/08/27 09:37:42;;;;;;;0.00;0.00;;;20.00;99.90;;;;;;5006242;28;20473;-88
2022/08/27 09:40:18;;;;;;;0.00;0.00;;;20.00;99.90;;;;;;5022503;28;20478;-89
2022/08/27 09:42:53;;;;;;;0.00;0.00;;;20.00;99.90;;;;;;5052029;28;20510;-89
2022/08/27 09:45:30;;;;;;;0.00;0.00;;;20.10;99.90;;;;;;5052406;28;20585;-89
2022/08/27 09:48:07;;;;;;;0.00;0.00;;;20.10;99.90;;;;;;5065062;28;20470;-89
2022/08/27 09:51:03;;;;;;;0.00;0.00;;;20.10;99.90;;;;;;5061861;28;20488;-90
2022/08/27 09:53:44;;;;;;;0.00;0.00;;;20.10;99.90;;;;;;5056156;28;20484;-89
2022/08/27 09:56:28;;;;;;;0.00;0.00;;;20.20;99.90;;;;;;5055990;28;20816;-88
2022/08/27 09:59:02;;;;;;;0.00;0.00;;;20.40;99.90;;;;;;5056043;28;20981;-89
2022/08/27 10:01:34;;;;;;;0.00;0.00;;;20.40;99.90;;;;;;5054323;28;20486;-90
2022/08/27 10:04:09;;;;;;;0.00;0.00;;;20.40;99.90;;;;;;5052764;28;20483;-89
2022/08/27 10:06:44;;;;;;;0.00;0.00;;;20.40;99.90;;;;;;5051370;28;20448;-89
2022/08/27 10:09:17;;;;;;;0.00;0.00;;;20.40;99.90;;;;;;5050806;28;20468;-89
2022/08/27 10:11:53;;;;;;;0.00;0.00;;;20.40;99.90;;;;;;5050843;28;20533;-91
2022/08/27 10:14:28;;;;;;;0.00;0.00;;;20.40;99.90;;;;;;5048452;28;20776;-88
2022/08/27 10:17:11;;;;;;;0.00;0.00;;;20.40;99.90;;;;;;5049740;28;20668;-90
2022/08/27 10:19:52;;;;;;;0.00;0.00;;;20.50;99.90;;;;;;5049562;28;20447;-90
2022/08/27 10:22:33;;;;;;;0.00;0.00;;;20.50;99.90;;;;;;5049167;28;20540;-91
2022/08/27 10:25:17;;;;;;;0.00;0.00;;;20.50;99.90;;;;;;5049242;28;20519;-90
2022/08/27 10:27:58;;;;;;;0.00;0.00;;;20.50;99.90;;;;;;5048731;28;20458;-91
2022/08/27 10:30:38;;;;;;;0.00;0.00;;;20.40;99.90;;;;;;5047418;28;20724;-89
2022/08/27 10:33:13;;;;;;;0.00;0.00;;;20.40;99.90;;;;;;5047745;28;20682;-88
2022/08/27 10:35:52;;;;;;;0.00;0.00;;;20.50;99.90;;;;;;5049142;28;20530;-88
2022/08/27 10:38:24;;;;;;;0.00;0.00;;;20.60;99.90;;;;;;5047264;28;20444;-90
2022/08/27 10:40:58;;;;;;;0.00;0.00;;;20.60;99.90;;;;;;5048776;28;20482;-88
2022/08/27 10:44:05;;;;;;;0.00;0.00;;;20.70;99.90;;;;;;5048272;28;20428;-89
2022/08/27 10:46:59;;;;;;;0.00;0.00;;;20.70;99.90;;;;;;5055097;28;20659;-88
2022/08/27 10:49:42;;;;;;;0.00;0.00;;;20.80;99.90;;;;;;5060247;28;20644;-90
2022/08/27 10:52:17;;;;;;;0.00;0.00;;;20.90;99.90;;;;;;5047436;28;21005;-90
2022/08/27 10:54:56;;;;;;;0.00;0.00;;;21.00;99.90;;;;;;5045990;28;20518;-90
2022/08/27 10:57:41;;;;;;;0.00;0.00;;;21.00;99.90;;;;;;5046223;28;20448;-90
2022/08/27 11:00:34;;;;;;;0.00;0.00;;;21.00;99.90;;;;;;5046828;28;20447;-89
2022/08/27 11:03:06;;;;;;;0.00;0.00;;;21.10;99.90;;;;;;5047549;28;20730;-88
2022/08/27 11:05:41;;;;;;;0.00;0.00;;;21.10;99.90;;;;;;5049129;28;20504;-90
2022/08/27 11:08:16;;;;;;;0.00;0.00;;;21.00;99.90;;;;;;5047291;28;20464;-90
2022/08/27 11:10:53;;;;;;;0.00;0.00;;;21.00;99.90;;;;;;5046530;28;20783;-89
2022/08/27 11:13:31;;;;;;;0.00;0.00;;;21.00;99.90;;;;;;5047585;28;20502;-93
2022/08/27 11:16:06;;;;;;;0.00;0.00;;;21.00;99.90;;;;;;5047336;28;20513;-90
2022/08/27 11:18:42;;;;;;;0.00;0.00;;;21.10;99.90;;;;;;5046074;28;20440;-90
2022/08/27 11:21:19;;;;;;;0.00;0.00;;;21.20;99.90;;;;;;5045771;28;20850;-90
2022/08/27 11:23:54;;;;;;;0.00;0.00;;;21.40;99.90;;;;;;5046903;28;20444;-89
2022/08/27 11:26:22;;;;;;;0.00;0.00;;;21.40;99.90;;;;;;5046403;28;20526;-89
2022/08/27 11:28:54;;;;;;;0.00;0.00;;;21.40;99.90;;;;;;5045858;28;20510;-89
2022/08/27 11:31:33;;;;;;;0.00;0.00;;;21.40;99.90;;;;;;5045833;28;20559;-89
2022/08/27 11:34:09;;;;;;;0.00;0.00;;;21.40;99.90;;;;;;5045407;28;20579;-90
2022/08/27 11:37:08;;;;;;;0.00;0.00;;;21.40;99.90;;;;;;5045660;28;20445;-89
2022/08/27 11:40:03;;;;;;;0.00;0.00;;;21.50;99.90;;;;;;5045849;28;20456;-89
2022/08/27 11:42:40;;;;;;;0.00;0.00;;;21.50;99.90;;;;;;5045851;28;20484;-89
2022/08/27 11:45:18;;;;;;;0.00;0.00;;;21.50;99.90;;;;;;5047039;28;20955;-90
2022/08/27 11:48:01;;;;;;;0.00;0.00;;;21.60;99.90;;;;;;5067130;28;20432;-91
2022/08/27 11:50:31;;;;;;;0.00;0.00;;;21.60;99.90;;;;;;5046131;28;20516;-89
2022/08/27 11:53:02;;;;;;;0.00;0.00;;;21.70;99.90;;;;;;5045346;28;20456;-90
2022/08/27 11:55:35;;;;;;;0.00;0.00;;;21.80;99.90;;;;;;5044647;28;20919;-91
2022/08/27 11:58:08;;;;;;;0.00;0.00;;;22.00;99.90;;;;;;5044281;28;20454;-91
2022/08/27 12:00:38;;;;;;;0.00;0.00;;;22.20;99.90;;;;;;5044711;28;20702;-90
2022/08/27 12:03:25;;;;;;;0.00;0.00;;;22.50;99.90;;;;;;5045527;28;21094;-90
2022/08/27 12:06:10;;;;;;;0.00;0.00;;;22.70;99.90;;;;;;5044754;28;20454;-89
2022/08/27 12:08:38;;;;;;;0.00;0.00;;;22.80;99.90;;;;;;5047631;28;20458;-91
2022/08/27 12:11:30;;;;;;;0.00;0.00;;;23.00;99.90;;;;;;5046885;28;20480;-90
2022/08/27 12:14:12;;;;;;;0.00;0.00;;;23.20;99.90;;;;;;5052048;28;20486;-90
2022/08/27 12:16:59;;;;;;;0.00;0.00;;;23.30;99.90;;;;;;5057414;28;20426;-91
2022/08/27 12:19:42;;;;;;;0.00;0.00;;;23.40;99.90;;;;;;5049852;28;20439;-89
2022/08/27 12:22:25;;;;;;;0.00;0.00;;;23.40;99.90;;;;;;5049736;28;21031;-91
2022/08/27 12:24:55;;;;;;;0.00;0.00;;;23.40;99.90;;;;;;5051055;28;20844;-90
2022/08/27 12:27:33;;;;;;;0.00;0.00;;;23.50;99.90;;;;;;5056617;28;20451;-90
2022/08/27 12:30:06;;;;;;;0.00;0.00;;;23.40;99.90;;;;;;5055087;28;20490;-91
2022/08/27 12:32:40;;;;;;;0.00;0.00;;;23.40;99.90;;;;;;5051593;28;20472;-91
2022/08/27 12:35:13;;;;;;;0.00;0.00;;;23.50;99.90;;;;;;5051772;28;20904;-90
2022/08/27 12:37:45;;;;;;;0.00;0.00;;;23.60;99.90;;;;;;5050490;28;20470;-91
2022/08/27 12:40:22;;;;;;;0.00;0.00;;;23.70;99.90;;;;;;5051671;28;20543;-89
2022/08/27 12:43:06;;;;;;;0.00;0.00;;;23.70;99.90;;;;;;5054761;28;20444;-89
2022/08/27 12:45:43;;;;;;;0.00;0.00;;;23.70;99.90;;;;;;5060586;28;20569;-89
2022/08/27 12:48:17;;;;;;;0.00;0.00;;;23.70;99.90;;;;;;5064210;28;20656;-89
2022/08/27 12:50:52;;;;;;;0.00;0.00;;;23.60;99.90;;;;;;5050308;28;20466;-89
2022/08/27 12:53:35;;;;;;;0.00;0.00;;;23.70;99.90;;;;;;5050534;28;20467;-90
2022/08/27 12:56:37;;;;;;;0.00;0.00;;;23.60;99.90;;;;;;5049704;28;20475;-90
2022/08/27 12:59:20;;;;;;;0.00;0.00;;;23.50;99.90;;;;;;5013012;28;20512;-91
2022/08/27 13:02:04;;;;;;;0.00;0.00;;;23.40;99.90;;;;;;5050255;28;20818;-89
2022/08/27 13:04:37;;;;;;;0.00;0.00;;;23.40;99.90;;;;;;5049762;28;20916;-90
2022/08/27 13:07:06;;;;;;;0.00;0.00;;;23.30;99.90;;;;;;5050212;28;20453;-90
2022/08/27 13:09:38;;;;;;;0.00;0.00;;;23.30;99.90;;;;;;5050136;28;20549;-90
2022/08/27 13:12:16;;;;;;;0.00;0.00;;;23.50;99.90;;;;;;5050835;28;20544;-90
2022/08/27 13:14:46;;;;;;;0.00;0.00;;;23.50;99.90;;;;;;5046895;28;20490;-89
2022/08/27 13:17:38;;;;;;;0.00;0.00;;;23.50;99.90;;;;;;5048858;28;20953;-91
2022/08/27 13:20:17;;;;;;;0.00;0.00;;;23.70;99.90;;;;;;5049399;28;20475;-91
2022/08/27 13:22:53;;;;;;;0.00;0.00;;;23.70;99.90;;;;;;5048762;28;20519;-90
2022/08/27 13:25:28;;;;;;;0.00;0.00;;;23.70;99.90;;;;;;5047253;28;20542;-91
2022/08/27 13:28:06;;;;;;;0.00;0.00;;;23.80;99.90;;;;;;5047695;28;20984;-91